createdAt,value
2022-07-31T00:02:07.961Z,18.60
2022-07-31T00:04:34.972Z,18.60
2022-07-31T00:07:02.003Z,18.70
2022-07-31T00:09:52.858Z,18.70
2022-07-31T00:12:17.366Z,18.60
2022-07-31T00:14:44.425Z,18.60
2022-07-31T00:17:11.047Z,18.60
2022-07-31T00:19:37.924Z,18.40
2022-07-31T00:22:04.759Z,18.30
2022-07-31T00:24:31.650Z,18.30
2022-07-31T00:26:58.399Z,18.40
2022-07-31T00:29:25.151Z,18.40
2022-07-31T00:31:51.891Z,18.50
2022-07-31T00:34:18.537Z,18.60
2022-07-31T00:36:45.231Z,18.60
2022-07-31T00:39:11.902Z,18.60
2022-07-31T00:41:44.751Z,18.50
2022-07-31T00:44:13.026Z,18.50
2022-07-31T00:46:40.601Z,18.50
2022-07-31T00:49:10.016Z,18.40
2022-07-31T00:51:38.003Z,18.40
2022-07-31T00:54:05.282Z,18.40
2022-07-31T00:56:32.013Z,18.30
2022-07-31T00:58:58.688Z,18.30
2022-07-31T01:01:25.534Z,18.30
2022-07-31T01:03:53.421Z,18.10
2022-07-31T01:06:20.622Z,17.90
2022-07-31T01:08:47.307Z,17.80
2022-07-31T01:11:32.942Z,17.70
2022-07-31T01:14:02.772Z,17.80
2022-07-31T01:16:34.074Z,17.80
2022-07-31T01:19:23.243Z,17.70
2022-07-31T01:22:37.566Z,17.60
2022-07-31T01:25:23.784Z,17.60
2022-07-31T01:28:07.222Z,17.60
2022-07-31T01:30:41.795Z,17.50
2022-07-31T01:33:15.566Z,17.40
2022-07-31T01:35:53.599Z,17.20
2022-07-31T01:38:26.498Z,17.10
2022-07-31T01:41:02.124Z,17.00
2022-07-31T01:43:33.718Z,17.00
2022-07-31T01:46:02.590Z,16.90
2022-07-31T01:48:35.312Z,16.80
2022-07-31T01:51:03.151Z,16.60
2022-07-31T01:53:34.838Z,16.50
2022-07-31T01:56:04.340Z,16.50
2022-07-31T01:58:36.227Z,16.40
2022-07-31T02:01:05.274Z,16.40
2022-07-31T02:03:44.314Z,16.30
2022-07-31T02:06:18.737Z,16.20
2022-07-31T02:08:47.260Z,16.10
2022-07-31T02:11:16.680Z,16.10
2022-07-31T02:13:45.211Z,16.00
2022-07-31T02:16:13.864Z,16.00
2022-07-31T02:18:41.990Z,15.90
2022-07-31T02:21:09.358Z,15.80
2022-07-31T02:23:37.273Z,15.80
2022-07-31T02:26:07.004Z,15.90
2022-07-31T02:28:37.934Z,15.90
2022-07-31T02:31:10.294Z,15.90
2022-07-31T02:33:39.974Z,15.90
2022-07-31T02:36:07.202Z,15.80
2022-07-31T02:38:35.115Z,15.80
2022-07-31T02:41:04.839Z,15.70
2022-07-31T02:43:35.187Z,15.50
2022-07-31T02:46:03.069Z,15.60
2022-07-31T02:48:30.027Z,15.50
2022-07-31T02:50:57.311Z,15.50
2022-07-31T02:53:24.855Z,15.40
2022-07-31T02:55:52.382Z,15.50
2022-07-31T02:58:19.055Z,15.40
2022-07-31T03:00:46.054Z,15.30
2022-07-31T03:03:12.985Z,15.30
2022-07-31T03:05:39.745Z,15.50
2022-07-31T03:08:06.395Z,15.50
2022-07-31T03:10:33.025Z,15.60
2022-07-31T03:13:01.708Z,15.60
2022-07-31T03:15:30.537Z,15.70
2022-07-31T03:17:58.343Z,15.70
2022-07-31T03:20:26.986Z,15.80
2022-07-31T03:22:53.886Z,15.70
2022-07-31T03:25:21.788Z,15.80
2022-07-31T03:27:52.426Z,15.80
2022-07-31T03:30:25.603Z,15.80
2022-07-31T03:32:56.303Z,15.80
2022-07-31T03:35:24.389Z,15.90
2022-07-31T03:37:51.640Z,15.80
2022-07-31T03:40:18.588Z,15.80
2022-07-31T03:42:46.095Z,15.80
2022-07-31T03:45:13.516Z,15.80
2022-07-31T03:47:40.539Z,15.90
2022-07-31T03:50:08.781Z,15.90
2022-07-31T03:52:36.231Z,15.90
2022-07-31T03:55:03.195Z,15.90
2022-07-31T03:57:31.403Z,16.00
2022-07-31T04:00:02.531Z,16.00
2022-07-31T04:02:30.500Z,16.00
2022-07-31T04:04:58.677Z,16.00
2022-07-31T04:07:25.587Z,16.10
2022-07-31T04:09:52.579Z,16.10
2022-07-31T04:12:19.420Z,16.10
2022-07-31T04:14:46.057Z,16.10
2022-07-31T04:17:12.778Z,16.10
2022-07-31T04:19:39.604Z,16.10
2022-07-31T04:22:07.424Z,16.30
2022-07-31T04:24:34.395Z,16.30
2022-07-31T04:27:01.604Z,16.40
2022-07-31T04:29:29.484Z,16.40
2022-07-31T04:31:56.513Z,16.40
2022-07-31T04:34:23.170Z,16.30
2022-07-31T04:36:49.962Z,16.20
2022-07-31T04:39:16.704Z,16.30
2022-07-31T04:41:44.180Z,16.30
2022-07-31T04:44:11.284Z,16.30
2022-07-31T04:46:38.146Z,16.40
2022-07-31T04:49:04.945Z,16.50
2022-07-31T04:51:31.704Z,16.70
2022-07-31T04:53:58.387Z,16.90
2022-07-31T04:56:33.925Z,17.00
2022-07-31T04:59:05.922Z,17.00
2022-07-31T05:01:33.379Z,16.90
2022-07-31T05:04:00.480Z,17.00
2022-07-31T05:06:34.626Z,17.00
2022-07-31T05:09:06.732Z,17.00
2022-07-31T05:11:36.096Z,17.10
2022-07-31T05:14:05.806Z,17.20
2022-07-31T05:16:33.658Z,17.00
2022-07-31T05:19:01.381Z,17.10
2022-07-31T05:21:28.371Z,17.10
2022-07-31T05:23:55.564Z,17.10
2022-07-31T05:26:23.309Z,17.10
2022-07-31T05:28:56.469Z,17.10
2022-07-31T05:31:24.881Z,17.30
2022-07-31T05:33:51.803Z,17.50
2022-07-31T05:36:19.511Z,17.50
2022-07-31T05:38:46.255Z,17.70
2022-07-31T05:41:13.505Z,17.80
2022-07-31T05:43:40.462Z,17.80
2022-07-31T05:46:07.470Z,17.80
2022-07-31T05:48:35.239Z,17.70
2022-07-31T05:51:05.447Z,17.70
2022-07-31T05:53:32.525Z,17.80
2022-07-31T05:55:59.177Z,17.80
2022-07-31T05:58:25.843Z,18.00
2022-07-31T06:00:52.493Z,18.10
2022-07-31T06:03:27.911Z,18.20
2022-07-31T06:05:55.348Z,18.40
2022-07-31T06:08:22.252Z,18.40
2022-07-31T06:10:48.929Z,18.40
2022-07-31T06:13:15.606Z,18.40
2022-07-31T06:15:49.191Z,18.60
2022-07-31T06:18:16.220Z,18.90
2022-07-31T06:20:42.919Z,18.90
2022-07-31T06:23:19.880Z,19.10
2022-07-31T06:25:54.856Z,19.30
2022-07-31T06:28:21.816Z,19.30
2022-07-31T06:31:00.432Z,19.50
2022-07-31T06:33:37.536Z,19.50
2022-07-31T06:36:04.939Z,19.60
2022-07-31T06:38:31.557Z,19.80
2022-07-31T06:40:58.224Z,19.90
2022-07-31T06:43:25.170Z,20.20
2022-07-31T06:45:52.660Z,20.30
2022-07-31T06:48:19.514Z,20.70
2022-07-31T06:50:47.019Z,21.00
2022-07-31T06:53:13.768Z,21.20
2022-07-31T06:55:42.616Z,21.60
2022-07-31T06:58:11.467Z,22.00
2022-07-31T07:00:38.478Z,22.20
2022-07-31T07:03:05.102Z,22.30
2022-07-31T07:05:31.743Z,22.50
2022-07-31T07:07:58.362Z,22.80
2022-07-31T07:10:25.111Z,23.50
2022-07-31T07:12:51.831Z,23.80
2022-07-31T07:15:20.708Z,23.90
2022-07-31T07:17:47.416Z,24.20
2022-07-31T07:20:14.067Z,24.30
2022-07-31T07:22:40.712Z,24.10
2022-07-31T07:25:08.088Z,24.00
2022-07-31T07:27:34.800Z,23.80
2022-07-31T07:30:01.481Z,23.90
2022-07-31T07:32:28.208Z,24.50
2022-07-31T07:34:59.430Z,24.80
2022-07-31T07:37:27.533Z,25.00
2022-07-31T07:39:54.218Z,25.20
2022-07-31T07:42:21.062Z,25.60
2022-07-31T07:44:47.712Z,25.60
2022-07-31T07:47:14.335Z,25.30
2022-07-31T07:49:41.003Z,25.30
2022-07-31T07:52:07.663Z,24.90
2022-07-31T07:54:34.290Z,25.00
2022-07-31T07:57:01.054Z,25.10
2022-07-31T07:59:27.699Z,25.30
2022-07-31T08:01:54.373Z,25.20
2022-07-31T08:04:20.996Z,25.30
2022-07-31T08:06:47.608Z,25.20
2022-07-31T08:09:14.281Z,25.20
2022-07-31T08:11:40.946Z,25.10
2022-07-31T08:14:07.575Z,24.90
2022-07-31T08:16:34.191Z,24.90
2022-07-31T08:19:00.973Z,24.60
2022-07-31T08:21:27.672Z,24.50
2022-07-31T08:23:54.375Z,24.30
2022-07-31T08:26:21.055Z,24.30
2022-07-31T08:28:50.682Z,24.10
2022-07-31T08:31:18.849Z,24.10
2022-07-31T08:33:47.530Z,24.10
2022-07-31T08:36:14.246Z,24.10
2022-07-31T08:38:40.879Z,24.10
2022-07-31T08:41:07.552Z,24.00
2022-07-31T08:44:02.130Z,24.00
2022-07-31T08:46:22.280Z,23.90
2022-07-31T08:48:53.450Z,23.60
2022-07-31T08:51:23.143Z,23.80
2022-07-31T08:53:53.431Z,23.80
2022-07-31T08:56:21.017Z,24.00
2022-07-31T08:58:47.694Z,24.20
2022-07-31T09:01:15.190Z,24.30
2022-07-31T09:03:41.994Z,24.50
2022-07-31T09:06:08.744Z,25.00
2022-07-31T09:08:37.096Z,25.30
2022-07-31T09:11:06.253Z,25.70
2022-07-31T09:13:35.114Z,26.40
2022-07-31T09:16:02.785Z,26.60
2022-07-31T09:18:29.833Z,27.00
2022-07-31T09:21:01.983Z,27.80
2022-07-31T09:23:30.388Z,28.50
2022-07-31T09:26:00.039Z,29.10
2022-07-31T09:28:37.196Z,29.20
2022-07-31T09:31:05.395Z,29.20
2022-07-31T09:33:32.680Z,29.60
2022-07-31T09:35:59.914Z,29.80
2022-07-31T09:38:35.412Z,29.80
2022-07-31T09:41:14.015Z,29.40
2022-07-31T09:44:10.114Z,29.40
2022-07-31T09:46:48.171Z,29.20
2022-07-31T09:49:15.520Z,28.80
2022-07-31T09:51:46.143Z,28.40
2022-07-31T09:54:27.094Z,28.10
2022-07-31T09:56:53.771Z,28.20
2022-07-31T09:59:20.537Z,28.40
2022-07-31T10:01:49.322Z,28.50
2022-07-31T10:04:20.621Z,28.30
2022-07-31T10:06:49.080Z,28.50
2022-07-31T10:09:19.160Z,28.40
2022-07-31T10:11:47.924Z,28.60
2022-07-31T10:14:22.552Z,28.50
2022-07-31T10:16:52.683Z,28.50
2022-07-31T10:19:20.813Z,29.10
2022-07-31T10:21:57.131Z,29.30
2022-07-31T10:24:28.378Z,30.20
2022-07-31T10:27:01.101Z,31.50
2022-07-31T10:29:32.479Z,32.50
2022-07-31T10:32:00.213Z,33.00
2022-07-31T10:34:27.491Z,33.30
2022-07-31T10:36:59.115Z,33.50
2022-07-31T10:39:42.250Z,33.90
2022-07-31T10:42:23.277Z,33.20
2022-07-31T10:45:03.974Z,32.50
2022-07-31T10:47:30.964Z,32.00
2022-07-31T10:49:57.819Z,32.40
2022-07-31T10:52:30.023Z,32.70
2022-07-31T10:55:01.858Z,32.30
2022-07-31T10:57:31.823Z,32.00
2022-07-31T11:00:19.107Z,31.50
2022-07-31T11:02:46.600Z,31.20
2022-07-31T11:05:23.483Z,30.60
2022-07-31T11:08:01.984Z,30.20
2022-07-31T11:10:29.438Z,30.30
2022-07-31T11:13:00.513Z,30.70
2022-07-31T11:15:27.327Z,32.50
2022-07-31T11:18:21.970Z,34.20
2022-07-31T11:20:46.938Z,34.70
2022-07-31T11:23:16.655Z,34.30
2022-07-31T11:25:47.735Z,33.70
2022-07-31T11:28:24.777Z,34.00
2022-07-31T11:30:54.391Z,34.00
2022-07-31T11:33:41.828Z,32.80
2022-07-31T11:36:24.158Z,31.90
2022-07-31T11:38:52.972Z,31.30
2022-07-31T11:41:23.521Z,31.10
2022-07-31T11:43:52.896Z,31.50
2022-07-31T11:46:28.004Z,32.20
2022-07-31T11:48:55.928Z,32.60
2022-07-31T11:51:23.397Z,32.40
2022-07-31T11:53:57.034Z,32.00
2022-07-31T11:56:25.896Z,31.40
2022-07-31T11:58:54.813Z,30.90
2022-07-31T12:01:28.931Z,30.90
2022-07-31T12:04:04.700Z,30.70
2022-07-31T12:06:36.883Z,30.70
2022-07-31T12:09:04.288Z,30.90
2022-07-31T12:11:31.097Z,31.10
2022-07-31T12:14:00.480Z,31.40
2022-07-31T12:16:27.356Z,31.50
2022-07-31T12:18:59.231Z,32.00
2022-07-31T12:21:34.339Z,32.10
2022-07-31T12:24:01.882Z,31.60
2022-07-31T12:26:30.821Z,31.20
2022-07-31T12:29:08.881Z,31.10
2022-07-31T12:31:52.855Z,31.40
2022-07-31T12:34:30.225Z,32.20
2022-07-31T12:37:02.229Z,33.60
2022-07-31T12:39:54.285Z,33.70
2022-07-31T12:42:31.241Z,34.30
2022-07-31T12:45:19.214Z,34.50
2022-07-31T12:47:51.977Z,34.30
2022-07-31T12:50:20.059Z,33.60
2022-07-31T12:52:46.759Z,32.50
2022-07-31T12:55:13.549Z,32.80
2022-07-31T12:57:51.561Z,33.20
2022-07-31T13:00:22.703Z,33.30
2022-07-31T13:02:50.447Z,33.30
2022-07-31T13:05:17.498Z,33.40
2022-07-31T13:07:48.654Z,33.60
2022-07-31T13:10:21.254Z,33.60
2022-07-31T13:12:51.305Z,33.60
2022-07-31T13:15:20.723Z,33.60
2022-07-31T13:17:50.114Z,33.40
2022-07-31T13:20:17.890Z,33.00
2022-07-31T13:22:44.539Z,33.00
2022-07-31T13:25:11.195Z,32.50
2022-07-31T13:27:38.142Z,32.60
2022-07-31T13:30:05.646Z,32.40
2022-07-31T13:32:33.340Z,32.00
2022-07-31T13:35:19.683Z,31.00
2022-07-31T13:37:48.260Z,30.30
2022-07-31T13:40:15.634Z,30.20
2022-07-31T13:42:42.304Z,30.10
2022-07-31T13:45:10.068Z,30.20
2022-07-31T13:50:28.628Z,31.40
2022-07-31T13:53:23.067Z,31.90
2022-07-31T13:58:30.463Z,32.10
2022-07-31T14:01:00.274Z,31.80
2022-07-31T14:03:29.453Z,31.30
2022-07-31T14:05:57.425Z,30.80
2022-07-31T14:08:33.162Z,31.00
2022-07-31T14:11:13.705Z,31.30
2022-07-31T14:13:42.440Z,31.30
2022-07-31T14:16:13.643Z,31.10
2022-07-31T14:18:40.424Z,31.20
2022-07-31T14:21:08.023Z,31.30
2022-07-31T14:23:40.132Z,30.80
2022-07-31T14:26:07.669Z,30.20
2022-07-31T14:28:35.420Z,29.90
2022-07-31T14:31:02.674Z,29.80
2022-07-31T14:33:29.604Z,29.70
2022-07-31T14:35:56.329Z,29.70
2022-07-31T14:38:27.438Z,29.80
2022-07-31T14:40:54.770Z,30.20
2022-07-31T14:43:21.503Z,30.30
2022-07-31T14:45:51.905Z,30.30
2022-07-31T14:48:18.869Z,30.20
2022-07-31T14:50:45.500Z,29.90
2022-07-31T14:53:12.360Z,30.00
2022-07-31T14:55:39.089Z,30.10
2022-07-31T14:58:05.789Z,30.30
2022-07-31T15:00:32.487Z,30.20
2022-07-31T15:02:59.343Z,30.20
2022-07-31T15:06:39.238Z,29.90
2022-07-31T15:08:13.078Z,29.70
2022-07-31T15:10:39.752Z,29.70
2022-07-31T15:13:06.525Z,29.50
2022-07-31T15:15:33.927Z,29.50
2022-07-31T15:18:00.813Z,29.30
2022-07-31T15:20:32.590Z,29.20
2022-07-31T15:23:00.232Z,29.00
2022-07-31T15:25:27.550Z,29.00
2022-07-31T15:27:54.648Z,29.30
2022-07-31T15:30:24.516Z,29.30
2022-07-31T15:32:53.302Z,29.10
2022-07-31T15:35:20.251Z,29.10
2022-07-31T15:37:46.995Z,28.90
2022-07-31T15:40:15.312Z,28.80
2022-07-31T15:42:44.210Z,28.90
2022-07-31T15:45:15.413Z,29.10
2022-07-31T15:47:43.488Z,29.10
2022-07-31T15:50:11.837Z,29.10
2022-07-31T15:52:38.656Z,29.10
2022-07-31T15:55:06.285Z,29.00
2022-07-31T15:57:33.235Z,29.00
2022-07-31T16:00:00.228Z,28.80
2022-07-31T16:02:27.185Z,28.60
2022-07-31T16:05:08.623Z,28.50
2022-07-31T16:08:29.021Z,28.60
2022-07-31T16:10:26.904Z,28.40
2022-07-31T16:12:53.684Z,28.00
2022-07-31T16:15:20.594Z,28.00
2022-07-31T16:17:47.256Z,28.00
2022-07-31T16:20:20.754Z,27.90
2022-07-31T16:22:58.900Z,27.90
2022-07-31T16:25:27.384Z,27.70
2022-07-31T16:27:54.706Z,27.80
2022-07-31T16:30:41.855Z,27.90
2022-07-31T16:33:08.473Z,27.80
2022-07-31T16:35:35.714Z,27.90
2022-07-31T16:38:02.340Z,28.00
2022-07-31T16:40:31.822Z,28.00
2022-07-31T16:43:01.397Z,27.80
2022-07-31T16:45:29.231Z,27.60
2022-07-31T16:47:55.884Z,27.50
2022-07-31T16:50:23.266Z,27.10
2022-07-31T16:52:54.552Z,26.90
2022-07-31T16:55:51.705Z,26.80
2022-07-31T16:58:12.237Z,26.80
2022-07-31T17:00:39.726Z,26.70
2022-07-31T17:03:06.653Z,26.60
2022-07-31T17:05:53.418Z,26.50
2022-07-31T17:08:20.229Z,26.50
2022-07-31T17:10:50.065Z,26.60
2022-07-31T17:13:19.483Z,26.60
2022-07-31T17:15:46.434Z,26.80
2022-07-31T17:18:13.108Z,26.90
2022-07-31T17:20:43.525Z,26.80
2022-07-31T17:23:10.280Z,26.60
2022-07-31T17:25:37.095Z,26.40
2022-07-31T17:28:03.932Z,26.30
2022-07-31T17:30:30.582Z,26.10
2022-07-31T17:32:57.271Z,26.00
2022-07-31T17:35:23.904Z,25.90
2022-07-31T17:37:50.579Z,25.90
2022-07-31T17:40:42.022Z,25.90
2022-07-31T17:43:04.111Z,25.80
2022-07-31T17:45:50.862Z,25.80
2022-07-31T17:48:19.747Z,25.80
2022-07-31T17:50:46.378Z,25.80
2022-07-31T17:53:13.223Z,25.90
2022-07-31T17:55:42.742Z,25.90
2022-07-31T17:58:09.432Z,25.90
2022-07-31T18:00:36.061Z,25.80
2022-07-31T18:03:02.883Z,25.80
2022-07-31T18:05:29.641Z,25.70
2022-07-31T18:07:56.411Z,25.70
2022-07-31T18:10:38.509Z,25.70
2022-07-31T18:13:10.468Z,25.60
2022-07-31T18:15:37.196Z,25.70
2022-07-31T18:18:03.971Z,25.60
2022-07-31T18:20:30.604Z,25.60
2022-07-31T18:22:57.377Z,25.60
2022-07-31T18:25:24.656Z,25.60
2022-07-31T18:27:52.417Z,25.60
2022-07-31T18:30:19.043Z,25.40
2022-07-31T18:32:45.785Z,25.30
2022-07-31T18:35:12.861Z,25.30
2022-07-31T18:37:39.549Z,25.20
2022-07-31T18:40:07.046Z,25.10
2022-07-31T18:42:33.719Z,25.00
2022-07-31T18:45:00.369Z,24.90
2022-07-31T18:47:27.090Z,24.90
2022-07-31T18:50:59.053Z,24.80
2022-07-31T18:52:40.485Z,24.80
2022-07-31T18:55:07.642Z,24.80
2022-07-31T18:57:34.282Z,24.90
2022-07-31T19:00:01.332Z,24.70
2022-07-31T19:02:28.493Z,24.70
2022-07-31T19:04:55.289Z,24.70
2022-07-31T19:07:22.091Z,24.70
2022-07-31T19:09:48.784Z,24.60
2022-07-31T19:12:15.797Z,24.60
2022-07-31T19:14:43.560Z,24.60
2022-07-31T19:17:10.441Z,24.60
2022-07-31T19:19:54.449Z,24.60
2022-07-31T19:22:22.136Z,24.60
2022-07-31T19:24:49.445Z,24.50
2022-07-31T19:27:16.441Z,24.50
2022-07-31T19:29:43.202Z,24.40
2022-07-31T19:32:10.172Z,24.40
2022-07-31T19:34:36.879Z,24.40
2022-07-31T19:37:04.315Z,24.30
2022-07-31T19:39:31.135Z,24.20
2022-07-31T19:42:11.296Z,24.30
2022-07-31T19:44:39.286Z,24.30
2022-07-31T19:47:06.353Z,24.30
2022-07-31T19:49:36.533Z,24.20
2022-07-31T19:52:05.625Z,24.20
2022-07-31T19:54:32.615Z,24.10
2022-07-31T19:56:59.254Z,24.10
2022-07-31T19:59:25.915Z,24.00
2022-07-31T20:01:52.520Z,24.10
2022-07-31T20:04:19.177Z,24.10
2022-07-31T20:06:45.842Z,24.10
2022-07-31T20:09:13.181Z,24.10
2022-07-31T20:11:39.807Z,24.10
2022-07-31T20:14:06.527Z,24.10
2022-07-31T20:16:33.334Z,24.10
2022-07-31T20:19:00.833Z,24.00
2022-07-31T20:21:27.555Z,24.10
2022-07-31T20:24:03.059Z,24.00
2022-07-31T20:26:31.440Z,23.90
2022-07-31T20:28:58.118Z,23.90
2022-07-31T20:31:24.941Z,23.90
2022-07-31T20:33:57.678Z,23.90
2022-07-31T20:36:28.225Z,23.80
2022-07-31T20:38:57.293Z,23.80
2022-07-31T20:41:24.590Z,23.80
2022-07-31T20:43:51.326Z,23.70
2022-07-31T20:46:18.208Z,23.60
2022-07-31T20:48:45.348Z,23.60
2022-07-31T20:51:19.159Z,23.50
2022-07-31T20:53:47.417Z,23.40
2022-07-31T20:56:14.417Z,23.40
2022-07-31T20:58:41.487Z,23.30
2022-07-31T21:01:08.860Z,23.30
2022-07-31T21:03:35.753Z,23.20
2022-07-31T21:06:02.458Z,23.10
2022-07-31T21:08:29.321Z,23.00
2022-07-31T21:10:56.248Z,23.00
2022-07-31T21:13:27.792Z,23.00
2022-07-31T21:15:54.627Z,22.90
2022-07-31T21:18:21.724Z,22.90
2022-07-31T21:20:53.478Z,22.80
2022-07-31T21:23:23.181Z,22.80
2022-07-31T21:25:51.691Z,22.70
2022-07-31T21:28:18.584Z,22.70
2022-07-31T21:30:45.575Z,22.70
2022-07-31T21:33:12.472Z,22.60
2022-07-31T21:35:40.236Z,22.50
2022-07-31T21:38:12.226Z,22.40
2022-07-31T21:40:39.883Z,22.40
2022-07-31T21:43:07.538Z,22.40
2022-07-31T21:45:45.724Z,22.20
2022-07-31T21:48:24.833Z,22.10
2022-07-31T21:50:52.357Z,22.10
2022-07-31T21:53:19.000Z,22.00
2022-07-31T21:55:45.627Z,22.00
2022-07-31T21:59:12.719Z,22.00
2022-07-31T22:01:39.435Z,22.00
2022-07-31T22:04:34.317Z,22.00
2022-07-31T22:07:20.514Z,22.00
2022-07-31T22:09:47.203Z,22.00
2022-07-31T22:12:13.849Z,21.90
2022-07-31T22:14:40.514Z,21.90
2022-07-31T22:17:08.195Z,21.90
2022-07-31T22:19:44.361Z,21.90
2022-07-31T22:22:14.480Z,21.90
2022-07-31T22:24:41.365Z,21.80
2022-07-31T22:27:26.519Z,21.80
2022-07-31T22:29:53.371Z,21.60
2022-07-31T22:32:20.043Z,21.50
2022-07-31T22:34:46.774Z,21.50
2022-07-31T22:37:14.596Z,21.50
2022-07-31T22:39:41.577Z,21.40
2022-07-31T22:42:09.278Z,21.30
2022-07-31T22:44:38.540Z,21.30
2022-07-31T22:47:06.895Z,21.20
2022-07-31T22:49:35.216Z,21.20
2022-07-31T22:52:03.640Z,21.20
2022-07-31T22:54:30.443Z,21.20
2022-07-31T22:56:57.075Z,21.20
2022-07-31T22:59:23.723Z,21.20
2022-07-31T23:01:50.526Z,21.10
2022-07-31T23:04:17.270Z,21.10
2022-07-31T23:06:43.955Z,21.10
2022-07-31T23:09:10.662Z,21.10
2022-07-31T23:11:37.290Z,21.10
2022-07-31T23:14:04.300Z,21.20
2022-07-31T23:16:31.067Z,21.20
2022-07-31T23:18:57.803Z,21.20
2022-07-31T23:21:24.836Z,21.10
2022-07-31T23:23:51.889Z,21.10
2022-07-31T23:26:19.834Z,21.10
2022-07-31T23:28:47.219Z,21.10
2022-07-31T23:31:14.386Z,21.00
2022-07-31T23:33:41.358Z,20.90
2022-07-31T23:36:08.051Z,20.90
2022-07-31T23:38:34.814Z,20.90
2022-07-31T23:41:01.561Z,20.90
2022-07-31T23:43:28.234Z,20.90
2022-07-31T23:45:54.887Z,20.80
2022-07-31T23:48:21.585Z,20.90
2022-07-31T23:50:48.489Z,20.90
2022-07-31T23:53:16.361Z,21.00
2022-07-31T23:55:43.227Z,21.00
2022-07-31T23:58:10.474Z,21.00
